Terminal Aerodrome Forecast
Issued by NWS

Home | Current Version | Previous Version | Text Only | Print | Product List | Glossary On
Versions: 1 2 3 4 5 6 7 8 9 10 11 12 13 14 15 16
000
FTUS45 KRIW 220539
TAFLND
TAF
KLND 220539Z 2206/2306 VRB05KT P6SM SCT070 BKN100
     FM221600 25010KT P6SM SCT050 BKN100
     FM230100 VRB05KT P6SM SCT050 BKN080
     FM230400 36005KT P6SM BKN050=

USA.gov is the U.S. government's official web portal to all federal, state and local government web resources and services.